Time;durP1;ratioP1;P1;durP2;ratioP2;P2;SDS_P1;SDS_P2;PMS_P1;PMS_P2;Temp;Humidity;BMP_temperature;BMP_pressure;BME280_temperature;BME280_humidity;BME280_pressure;Samples;Min_cycle;Max_cycle;Signal;HPM_P1;HPM_P2
2021/12/17 00:00:35;;;;;;;;;;;6.50;99.90;;;6.47;100.00;102734.09;4960674;28;20540;-80
2021/12/17 00:05:46;;;;;;;;;;;6.50;99.90;;;6.50;100.00;102735.06;4975760;28;19949;-79
2021/12/17 00:08:13;;;;;;;;;;;6.50;99.90;;;6.50;100.00;102732.47;4959588;28;20310;-79
2021/12/17 00:10:42;;;;;;;;;;;8.20;99.90;;;6.51;100.00;102726.38;4960160;28;20692;-79
2021/12/17 00:13:10;;;;;;;;;;;6.90;99.90;;;6.50;100.00;102724.63;4975285;28;20476;-79
2021/12/17 00:15:41;;;;;;;;;;;6.80;99.90;;;6.53;100.00;102732.53;4976424;28;19960;-78
2021/12/17 00:18:17;;;;;;;;;;;8.00;99.90;;;6.50;100.00;102718.47;4980920;28;19937;-79
2021/12/17 00:48:24;;;;;;;;;;;6.70;99.90;;;6.66;100.00;102710.25;4978524;28;19974;-78
2021/12/17 00:53:33;;;;;;;;;;;6.90;99.90;;;6.71;100.00;102706.88;4978925;28;19926;-80
2021/12/17 00:56:02;;;;;;;;;;;7.40;99.90;;;6.66;100.00;102712.88;4964332;28;19995;-80
2021/12/17 00:58:46;;;;;;;;;;;6.70;99.90;;;6.71;100.00;102702.56;4996682;28;19954;-80
2021/12/17 01:01:17;;;;;;;;;;;8.00;99.90;;;6.75;100.00;102698.31;4983046;28;20364;-80
2021/12/17 01:03:47;;;;;;;;;;;6.70;99.90;;;6.74;100.00;102702.63;4972283;28;19930;-79
2021/12/17 01:06:15;;;;;;;;;;;7.90;99.90;;;6.77;100.00;102696.63;4988042;28;20020;-78
2021/12/17 01:08:42;;;;;;;;;;;7.50;99.90;;;6.78;100.00;102701.00;4972983;28;19926;-78
2021/12/17 01:11:12;;;;;;;;;;;6.80;99.90;;;6.73;100.00;102705.22;4989884;28;20407;-79
2021/12/17 01:14:09;;;;;;;;;;;8.70;99.90;;;6.82;100.00;102697.63;4971508;28;19926;-80
2021/12/17 01:17:34;;;;;;;;;;;7.10;99.90;;;6.80;100.00;102702.84;4914106;29;19923;-79
2021/12/17 01:20:23;;;;;;;;;;;7.40;99.90;;;6.75;100.00;102707.03;4898188;29;20033;-78
2021/12/17 01:39:23;;;;;;;;;;;7.40;99.90;;;6.78;100.00;102707.09;4970559;28;19937;-79
2021/12/17 01:41:05;;;;;;;;;;;6.80;99.90;;;6.73;100.00;102707.84;4954799;28;19930;-79
2021/12/17 01:43:38;;;;;;;;;;;6.90;99.90;;;6.60;100.00;102714.41;4955897;28;19930;-79
2021/12/17 01:46:06;;;;;;;;;;;7.80;99.90;;;6.55;100.00;102711.66;4989425;28;19926;-80
2021/12/17 01:48:52;;;;;;;;;;;7.30;99.90;;;6.51;100.00;102713.31;4956719;28;19934;-79
2021/12/17 01:59:35;;;;;;;;;;;7.30;99.90;;;6.77;100.00;102714.94;4972040;28;19930;-78
2021/12/17 02:02:05;;;;;;;;;;;7.20;99.90;;;6.78;100.00;102701.00;4971962;28;19930;-78
2021/12/17 02:04:34;;;;;;;;;;;6.90;99.90;;;6.84;100.00;102701.16;4954967;28;19930;-78
2021/12/17 02:07:02;;;;;;;;;;;7.10;99.90;;;6.84;100.00;102708.16;4988600;28;20565;-79
2021/12/17 02:28:41;;;;;;;;;;;6.90;99.90;;;6.85;100.00;102696.84;4969332;28;19927;-78
2021/12/17 02:28:59;;;;;;;;;;;6.80;99.90;;;6.85;100.00;102695.09;4983506;28;19930;-79
2021/12/17 02:31:29;;;;;;;;;;;6.90;99.90;;;6.85;100.00;102700.31;4970004;28;20307;-80
2021/12/17 02:34:11;;;;;;;;;;;8.10;99.90;;;6.85;100.00;102689.00;4969201;28;19926;-78
2021/12/17 02:36:39;;;;;;;;;;;7.50;99.90;;;6.90;100.00;102688.28;4985654;28;19926;-79
2021/12/17 02:47:31;;;;;;;;;;;6.90;99.90;;;6.91;100.00;102673.44;4970141;28;20454;-77
2021/12/17 02:49:58;;;;;;;;;;;7.50;99.90;;;6.93;100.00;102669.13;4969889;28;19936;-77
2021/12/17 02:52:27;;;;;;;;;;;6.90;99.90;;;6.96;100.00;102677.09;4969556;28;19933;-77
2021/12/17 02:54:55;;;;;;;;;;;6.90;99.90;;;6.93;100.00;102677.91;4985801;28;19931;-77
2021/12/17 02:57:40;;;;;;;;;;;6.90;99.90;;;6.98;100.00;102674.50;4970249;28;19918;-77
2021/12/17 03:00:07;;;;;;;;;;;7.40;99.90;;;6.98;100.00;102662.31;4969385;28;19930;-77
2021/12/17 03:02:38;;;;;;;;;;;7.00;99.90;;;7.00;100.00;102672.81;4969396;28;19934;-79
2021/12/17 03:05:09;;;;;;;;;;;6.90;99.90;;;6.99;100.00;102669.34;4970800;28;19962;-77
2021/12/17 03:07:42;;;;;;;;;;;7.00;99.90;;;7.00;100.00;102673.72;4973573;28;19930;-79
2021/12/17 03:10:11;;;;;;;;;;;7.00;99.90;;;7.05;100.00;102671.22;4975080;28;19926;-79
2021/12/17 03:12:49;;;;;;;;;;;7.00;99.90;;;7.06;100.00;102676.50;4970876;28;19980;-80
2021/12/17 03:25:49;;;;;;;;;;;7.50;99.90;;;7.10;100.00;102672.25;4974091;28;20417;-79
2021/12/17 03:28:19;;;;;;;;;;;7.10;99.90;;;7.12;100.00;102675.78;4956114;28;19973;-79
2021/12/17 03:30:49;;;;;;;;;;;7.70;99.90;;;7.13;100.00;102685.41;4976494;28;19972;-79
2021/12/17 03:33:20;;;;;;;;;;;8.00;99.90;;;7.07;100.00;102682.63;4978509;28;19936;-79
2021/12/17 03:35:52;;;;;;;;;;;7.10;99.90;;;7.12;100.00;102682.75;4958759;28;19930;-78
2021/12/17 03:38:22;;;;;;;;;;;6.60;99.90;;;7.12;100.00;102686.25;4955644;28;19930;-78
2021/12/17 03:40:57;;;;;;;;;;;7.10;99.90;;;7.16;100.00;102684.63;4969703;28;19930;-78
2021/12/17 03:43:39;;;;;;;;;;;8.10;99.90;;;7.17;100.00;102684.63;4953140;28;20052;-78
2021/12/17 03:46:09;;;;;;;;;;;7.10;99.90;;;7.20;100.00;102684.75;4971704;28;19930;-78
2021/12/17 03:48:38;;;;;;;;;;;7.60;99.90;;;7.18;100.00;102688.16;4970217;28;20415;-79
2021/12/17 03:51:13;;;;;;;;;;;7.10;99.90;;;7.23;100.00;102684.81;4969103;28;20461;-78
2021/12/17 03:53:46;;;;;;;;;;;7.20;99.90;;;7.24;100.00;102685.69;4967976;28;20020;-78
2021/12/17 03:56:14;;;;;;;;;;;7.20;99.90;;;7.16;100.00;102680.25;4985169;28;19926;-77
2021/12/17 03:58:41;;;;;;;;;;;7.50;99.90;;;7.20;100.00;102681.22;4975976;28;19934;-78
2021/12/17 04:01:08;;;;;;;;;;;7.20;99.90;;;7.23;100.00;102686.53;4968960;28;20025;-78
2021/12/17 04:03:37;;;;;;;;;;;8.60;99.90;;;7.25;100.00;102679.59;4967501;28;20444;-78
2021/12/17 04:06:11;;;;;;;;;;;7.90;99.90;;;7.26;100.00;102689.28;4968619;28;19937;-78
2021/12/17 04:08:56;;;;;;;;;;;9.00;99.90;;;7.27;100.00;102679.66;4969045;28;19981;-78
2021/12/17 04:11:34;;;;;;;;;;;7.30;99.90;;;7.26;100.00;102675.28;4967379;28;19960;-78
2021/12/17 04:14:12;;;;;;;;;;;9.80;99.90;;;7.22;100.00;102676.91;4970114;28;19934;-78
2021/12/17 04:17:02;;;;;;;;;;;9.10;99.90;;;7.26;100.00;102675.28;4970000;28;19941;-78
2021/12/17 04:19:33;;;;;;;;;;;7.20;99.90;;;7.31;100.00;102676.28;4971510;28;20533;-78
2021/12/17 04:22:00;;;;;;;;;;;7.90;99.90;;;7.29;100.00;102672.72;4971402;28;19926;-78
2021/12/17 04:24:27;;;;;;;;;;;7.20;99.90;;;7.31;100.00;102674.56;4952702;28;19930;-78
2021/12/17 04:26:55;;;;;;;;;;;7.40;99.90;;;7.31;100.00;102685.03;4970225;28;19962;-78
2021/12/17 04:29:25;;;;;;;;;;;7.70;99.90;;;7.33;100.00;102675.47;4956177;28;20025;-79
2021/12/17 04:31:56;;;;;;;;;;;8.90;99.90;;;7.33;100.00;102667.63;4956082;28;20563;-78
2021/12/17 04:34:27;;;;;;;;;;;7.30;99.90;;;7.34;100.00;102663.28;4970338;28;19930;-79
2021/12/17 04:36:56;;;;;;;;;;;7.80;99.90;;;7.36;100.00;102672.94;4954886;28;19926;-79
2021/12/17 04:39:39;;;;;;;;;;;8.30;99.90;;;7.38;100.00;102662.50;4970614;28;20398;-79
2021/12/17 04:42:15;;;;;;;;;;;8.10;99.90;;;7.40;100.00;102662.53;4970726;28;20420;-78
2021/12/17 04:44:50;;;;;;;;;;;9.40;99.90;;;7.40;100.00;102659.91;4970464;28;20524;-79
2021/12/17 04:58:02;;;;;;;;;;;7.50;99.90;;;7.43;100.00;102623.34;4971326;28;20509;-78
2021/12/17 05:00:32;;;;;;;;;;;7.30;99.90;;;7.42;100.00;102630.31;4954029;28;19977;-78
2021/12/17 05:03:14;;;;;;;;;;;7.70;99.90;;;7.45;100.00;102635.63;4969514;28;19926;-79
2021/12/17 05:05:44;;;;;;;;;;;7.30;99.90;;;7.43;100.00;102621.59;4971467;28;19933;-79
2021/12/17 05:08:21;;;;;;;;;;;7.30;99.90;;;7.43;100.00;102623.34;4972009;28;20431;-80
2021/12/17 05:11:16;;;;;;;;;;;7.40;99.90;;;7.44;100.00;102627.75;4953950;28;19937;-79
2021/12/17 05:22:13;;;;;;;;;;;7.40;99.90;;;7.40;100.00;102610.16;4927444;28;19985;-79
2021/12/17 05:24:41;;;;;;;;;;;7.30;99.90;;;7.34;100.00;102622.25;4954966;28;19965;-80
2021/12/17 05:27:08;;;;;;;;;;;8.00;99.90;;;7.40;100.00;102615.38;4955142;28;19950;-79
2021/12/17 05:29:45;;;;;;;;;;;7.30;99.90;;;7.36;100.00;102620.56;4963036;28;19930;-79
2021/12/17 05:32:12;;;;;;;;;;;7.30;99.90;;;7.37;100.00;102617.09;4973536;28;19930;-77
2021/12/17 05:34:39;;;;;;;;;;;7.30;99.90;;;7.38;100.00;102620.59;4965671;28;20121;-76
2021/12/17 05:37:09;;;;;;;;;;;7.40;99.90;;;7.33;100.00;102625.72;4986392;28;20016;-76
2021/12/17 05:39:36;;;;;;;;;;;7.30;99.90;;;7.32;100.00;102623.94;4964732;28;19930;-79
2021/12/17 05:42:05;;;;;;;;;;;7.30;99.90;;;7.25;100.00;102611.53;4943998;28;19934;-79
2021/12/17 05:44:41;;;;;;;;;;;7.30;99.90;;;7.31;100.00;102622.19;4974164;28;19934;-79
2021/12/17 05:47:08;;;;;;;;;;;7.30;99.90;;;7.32;100.00;102615.19;4974436;28;19930;-79
2021/12/17 05:49:35;;;;;;;;;;;7.30;99.90;;;7.27;100.00;102619.44;4962881;28;20081;-78
2021/12/17 05:52:03;;;;;;;;;;;7.30;99.90;;;7.30;100.00;102625.66;4963889;28;19938;-78
2021/12/17 05:54:32;;;;;;;;;;;7.30;99.90;;;7.29;100.00;102629.13;4964642;28;19926;-79
2021/12/17 05:57:00;;;;;;;;;;;7.30;99.90;;;7.22;100.00;102630.69;4963697;28;19931;-79
2021/12/17 05:59:34;;;;;;;;;;;7.80;99.90;;;7.20;100.00;102634.09;4976341;28;20721;-78
2021/12/17 06:02:08;;;;;;;;;;;7.20;99.90;;;7.17;100.00;102634.03;4961053;28;19930;-80
2021/12/17 06:04:39;;;;;;;;;;;7.20;99.90;;;7.18;100.00;102641.94;4968842;28;19926;-79
2021/12/17 06:07:07;;;;;;;;;;;7.40;99.90;;;7.17;100.00;102627.03;4953040;29;20033;-80
2021/12/17 06:09:38;;;;;;;;;;;7.80;99.90;;;7.15;100.00;102631.34;4970567;28;19936;-78
2021/12/17 06:12:11;;;;;;;;;;;7.20;99.90;;;7.18;100.00;102630.56;4981670;28;19930;-79
2021/12/17 06:14:39;;;;;;;;;;;8.00;99.90;;;7.18;100.00;102647.16;4970283;28;20021;-78
2021/12/17 06:17:06;;;;;;;;;;;7.20;99.90;;;7.17;100.00;102647.97;4975020;28;19936;-79
2021/12/17 06:19:52;;;;;;;;;;;7.20;99.90;;;7.16;100.00;102645.34;4991060;28;19926;-79
2021/12/17 06:22:19;;;;;;;;;;;7.10;99.90;;;7.09;100.00;102641.66;4974449;28;19926;-79
2021/12/17 06:24:50;;;;;;;;;;;7.20;99.90;;;7.14;100.00;102647.03;4988932;28;19937;-79
2021/12/17 06:27:19;;;;;;;;;;;7.70;99.90;;;7.18;100.00;102655.03;4990256;28;20024;-79
2021/12/17 06:29:47;;;;;;;;;;;7.20;99.90;;;7.15;100.00;102657.53;4958041;28;20029;-78
2021/12/17 06:32:20;;;;;;;;;;;7.20;99.90;;;7.18;100.00;102656.75;4973810;28;19930;-75
2021/12/17 06:34:53;;;;;;;;;;;8.80;99.90;;;7.20;100.00;102660.28;4969431;28;19926;-75
2021/12/17 06:37:21;;;;;;;;;;;7.10;99.90;;;7.20;100.00;102657.66;4970023;28;19930;-74
2021/12/17 06:39:51;;;;;;;;;;;7.90;99.90;;;7.24;100.00;102669.97;4969669;28;20025;-74
2021/12/17 06:42:19;;;;;;;;;;;7.20;99.90;;;7.25;100.00;102674.38;4987841;28;19926;-74
2021/12/17 06:44:48;;;;;;;;;;;7.20;99.90;;;7.28;100.00;102674.47;4968101;28;20548;-74
2021/12/17 06:47:34;;;;;;;;;;;7.20;99.90;;;7.22;100.00;102667.34;4983682;28;19934;-74
2021/12/17 06:56:43;;;;;;;;;;;7.20;99.90;;;7.28;100.00;102676.19;4985086;28;20364;-74
2021/12/17 06:59:22;;;;;;;;;;;7.20;99.90;;;7.31;100.00;102671.94;4970498;28;19969;-74
2021/12/17 07:17:35;;;;;;;;;;;7.30;99.90;;;7.32;100.00;102697.28;4964116;28;19930;-74
2021/12/17 07:28:50;;;;;;;;;;;7.30;99.90;;;7.42;100.00;102708.00;4969092;28;19930;-74
2021/12/17 07:34:01;;;;;;;;;;;7.00;99.90;;;7.40;100.00;102707.06;4970320;28;19937;-74
2021/12/17 07:36:56;;;;;;;;;;;7.30;99.90;;;7.38;100.00;102693.94;4985030;28;20391;-73
2021/12/17 07:39:26;;;;;;;;;;;7.60;99.90;;;7.41;100.00;102711.44;4985137;28;19974;-73
2021/12/17 07:41:56;;;;;;;;;;;7.80;99.90;;;7.38;100.00;102709.66;4952947;28;19938;-73
2021/12/17 07:44:49;;;;;;;;;;;7.60;99.90;;;7.40;100.00;102704.44;4946755;28;19926;-73
2021/12/17 07:47:56;;;;;;;;;;;7.30;99.90;;;7.40;100.00;102705.34;4985014;28;19922;-74
2021/12/17 07:50:49;;;;;;;;;;;7.30;99.90;;;7.44;100.00;102708.94;4968936;28;19927;-72
2021/12/17 07:53:22;;;;;;;;;;;7.30;99.90;;;7.44;100.00;102707.19;4984821;28;19969;-75
2021/12/17 07:56:00;;;;;;;;;;;7.40;99.90;;;7.46;100.00;102704.63;4969094;28;20012;-75
2021/12/17 07:58:32;;;;;;;;;;;8.40;99.90;;;7.45;100.00;102703.72;4985013;28;19965;-75
2021/12/17 08:01:00;;;;;;;;;;;7.80;99.90;;;7.41;100.00;102699.25;4985113;28;19926;-74
2021/12/17 08:03:27;;;;;;;;;;;9.80;99.90;;;7.38;100.00;102713.16;4969522;28;20045;-74
2021/12/17 08:06:00;;;;;;;;;;;7.40;99.90;;;7.38;100.00;102707.91;4959668;28;20030;-74
2021/12/17 08:08:31;;;;;;;;;;;7.40;99.90;;;7.43;100.00;102697.56;4968142;28;19930;-74
2021/12/17 08:11:10;;;;;;;;;;;7.40;99.90;;;7.42;100.00;102703.66;4968011;28;19926;-74
2021/12/17 08:13:43;;;;;;;;;;;7.30;99.90;;;7.37;100.00;102700.91;4968147;28;19930;-74
2021/12/17 08:32:08;;;;;;;;;;;7.30;99.90;;;7.38;100.00;102714.91;4968011;28;19926;-74
2021/12/17 08:34:49;;;;;;;;;;;7.30;99.90;;;7.40;100.00;102718.44;4984403;28;19997;-75
2021/12/17 08:37:17;;;;;;;;;;;7.30;99.90;;;7.48;100.00;102724.75;4953888;28;20000;-74
2021/12/17 08:39:47;;;;;;;;;;;7.70;99.90;;;7.54;100.00;102720.53;4967856;28;20549;-74
2021/12/17 08:42:37;;;;;;;;;;;7.40;99.90;;;7.59;100.00;102718.91;4967845;28;19922;-75
2021/12/17 08:45:08;;;;;;;;;;;7.90;99.90;;;7.62;100.00;102719.00;4984202;28;19926;-74
2021/12/17 08:47:49;;;;;;;;;;;7.50;99.90;;;7.64;100.00;102723.44;4972410;28;19930;-74
2021/12/17 08:50:35;;;;;;;;;;;7.60;99.90;;;7.69;100.00;102730.53;4971632;28;19981;-75
2021/12/17 08:53:02;;;;;;;;;;;7.60;99.90;;;7.68;100.00;102731.38;4971603;28;19980;-74
2021/12/17 08:55:51;;;;;;;;;;;7.60;99.90;;;7.73;100.00;102729.78;4971420;28;19921;-76
2021/12/17 08:58:18;;;;;;;;;;;7.80;99.90;;;7.70;100.00;102733.19;4951999;28;19932;-74
2021/12/17 09:01:04;;;;;;;;;;;8.10;99.90;;;7.68;100.00;102739.22;4971442;28;19922;-75
2021/12/17 09:03:32;;;;;;;;;;;7.60;99.90;;;7.74;100.00;102742.91;4970989;28;19933;-75
2021/12/17 09:06:24;;;;;;;;;;;7.70;99.90;;;7.75;100.00;102744.69;4979926;28;19934;-75
2021/12/17 09:08:54;;;;;;;;;;;7.60;99.90;;;7.72;100.00;102741.97;4970069;28;19934;-75
2021/12/17 09:11:24;;;;;;;;;;;8.50;99.90;;;7.66;100.00;102744.44;4968723;28;20288;-78
2021/12/17 09:14:01;;;;;;;;;;;7.70;99.90;;;7.68;100.00;102741.84;4955391;28;19934;-75
2021/12/17 09:16:47;;;;;;;;;;;7.70;99.90;;;7.70;100.00;102741.06;4955850;28;19970;-74
2021/12/17 09:19:19;;;;;;;;;;;7.70;99.90;;;7.70;100.00;102738.44;4963150;28;19930;-75
2021/12/17 09:21:52;;;;;;;;;;;7.70;99.90;;;7.70;100.00;102738.44;4968400;28;19944;-75
2021/12/17 09:24:38;;;;;;;;;;;7.70;99.90;;;7.69;100.00;102736.66;4980362;28;20021;-75
2021/12/17 09:27:10;;;;;;;;;;;7.60;99.90;;;7.72;100.00;102738.47;4959998;28;19930;-75
2021/12/17 09:29:56;;;;;;;;;;;7.70;99.90;;;7.72;100.00;102738.47;4953187;29;19957;-75
2021/12/17 09:32:23;;;;;;;;;;;7.80;99.90;;;7.69;100.00;102739.28;4952920;29;19975;-74
2021/12/17 09:34:50;;;;;;;;;;;7.70;99.90;;;7.76;100.00;102743.81;4967558;28;20093;-74
2021/12/17 09:37:17;;;;;;;;;;;9.10;99.90;;;7.78;100.00;102736.00;4967701;28;19935;-75
2021/12/17 09:39:45;;;;;;;;;;;7.70;99.90;;;7.80;100.00;102745.69;4967221;28;19970;-74
2021/12/17 09:42:13;;;;;;;;;;;8.10;99.90;;;7.61;100.00;102746.03;4953170;29;19993;-74
2021/12/17 09:44:41;;;;;;;;;;;7.80;99.90;;;7.84;100.00;102741.41;4952684;29;20311;-75
2021/12/17 09:47:08;;;;;;;;;;;7.70;99.90;;;7.83;100.00;102737.00;4953204;29;20017;-75
2021/12/17 09:49:35;;;;;;;;;;;7.80;99.90;;;7.93;100.00;102736.41;4935463;29;19927;-75
2021/12/17 09:52:02;;;;;;;;;;;7.80;99.90;;;7.97;100.00;102733.84;4967657;28;19930;-75
2021/12/17 09:54:30;;;;;;;;;;;7.80;99.90;;;8.01;100.00;102740.94;4980957;28;19926;-75
2021/12/17 09:56:57;;;;;;;;;;;7.90;99.90;;;8.05;100.00;102742.81;4969824;28;19940;-75
2021/12/17 09:59:24;;;;;;;;;;;7.90;99.90;;;8.09;100.00;102734.16;4954932;28;19926;-75
2021/12/17 10:01:51;;;;;;;;;;;7.90;99.90;;;8.14;100.00;102739.53;4971673;28;19993;-75
2021/12/17 10:04:20;;;;;;;;;;;8.00;99.90;;;8.12;100.00;102741.19;4972997;28;19930;-75
2021/12/17 10:06:49;;;;;;;;;;;8.50;99.90;;;8.14;100.00;102748.25;4972854;28;19954;-75
2021/12/17 10:09:16;;;;;;;;;;;8.00;99.90;;;8.20;100.00;102742.28;4973721;28;20029;-75
2021/12/17 10:12:03;;;;;;;;;;;8.10;99.90;;;8.22;100.00;102745.81;4986233;28;19977;-75
2021/12/17 10:14:30;;;;;;;;;;;8.10;99.90;;;8.26;100.00;102745.03;4981243;28;20379;-75
2021/12/17 10:17:12;;;;;;;;;;;8.20;99.90;;;8.36;100.00;102749.66;4979698;28;20378;-75
2021/12/17 10:19:50;;;;;;;;;;;8.10;99.90;;;8.36;100.00;102740.94;4970542;28;20346;-76
2021/12/17 10:22:19;;;;;;;;;;;8.40;99.90;;;8.35;100.00;102723.38;4969725;28;19981;-76
2021/12/17 10:25:08;;;;;;;;;;;8.20;99.90;;;8.47;100.00;102728.91;4970288;28;19930;-75
2021/12/17 10:27:38;;;;;;;;;;;8.30;99.90;;;8.50;100.00;102730.75;4969884;28;19933;-75
2021/12/17 10:30:11;;;;;;;;;;;8.50;99.90;;;8.54;100.00;102724.72;4970471;28;19933;-75
2021/12/17 10:32:41;;;;;;;;;;;8.40;99.90;;;8.58;100.00;102715.19;4971750;28;19930;-74
2021/12/17 10:35:17;;;;;;;;;;;8.80;99.90;;;8.62;100.00;102722.28;4971091;28;19939;-75
2021/12/17 10:37:50;;;;;;;;;;;8.50;99.90;;;8.68;100.00;102711.94;4972549;28;19930;-75
2021/12/17 10:40:24;;;;;;;;;;;8.90;99.90;;;8.75;100.00;102705.06;4971171;28;20478;-75
2021/12/17 10:43:15;;;;;;;;;;;8.60;99.90;;;8.79;100.00;102704.28;4966029;28;20431;-75
2021/12/17 10:45:56;;;;;;;;;;;8.60;99.90;;;8.85;100.00;102712.25;4953119;29;19930;-75
2021/12/17 10:48:33;;;;;;;;;;;8.60;99.90;;;8.84;100.00;102707.88;4936024;29;19930;-75
2021/12/17 10:51:20;;;;;;;;;;;8.70;99.90;;;8.96;100.00;102704.59;4962362;28;20002;-75
2021/12/17 10:53:55;;;;;;;;;;;8.70;99.90;;;9.00;100.00;102703.84;4970803;28;19934;-75
2021/12/17 10:56:29;;;;;;;;;;;8.80;99.90;;;9.07;100.00;102705.72;4970347;28;20418;-75
2021/12/17 10:59:00;;;;;;;;;;;8.80;99.90;;;9.15;100.00;102707.63;4970104;28;20025;-76
2021/12/17 11:01:34;;;;;;;;;;;8.90;99.90;;;9.20;100.00;102708.59;4969632;28;19934;-75
2021/12/17 11:04:21;;;;;;;;;;;8.90;99.90;;;9.24;100.00;102713.03;4972884;28;20556;-75
2021/12/17 11:06:48;;;;;;;;;;;9.00;99.90;;;9.33;100.00;102705.34;4980250;28;19926;-74
2021/12/17 11:09:36;;;;;;;;;;;9.00;99.90;;;9.29;100.00;102700.00;4975752;28;19930;-75
2021/12/17 11:12:20;;;;;;;;;;;9.00;99.90;;;9.32;100.00;102711.44;4965382;28;20041;-75
2021/12/17 11:14:47;;;;;;;;;;;9.10;99.90;;;9.41;100.00;102709.84;4969149;28;20021;-75
2021/12/17 11:17:17;;;;;;;;;;;9.20;99.90;;;9.47;100.00;102697.69;4969003;28;19926;-75
2021/12/17 11:20:13;;;;;;;;;;;9.20;99.90;;;9.57;100.00;102688.22;4968892;28;19926;-75
2021/12/17 11:22:42;;;;;;;;;;;9.30;99.90;;;9.62;100.00;102690.94;4968551;28;20044;-78
2021/12/17 11:25:12;;;;;;;;;;;9.30;99.90;;;9.69;100.00;102682.31;4968652;28;19926;-76
2021/12/17 11:27:40;;;;;;;;;;;9.40;99.90;;;9.77;100.00;102688.56;4968927;28;19926;-76
2021/12/17 11:30:16;;;;;;;;;;;9.80;99.90;;;9.82;100.00;102678.13;4972126;28;19930;-77
2021/12/17 11:32:45;;;;;;;;;;;9.50;99.90;;;9.84;100.00;102665.91;4977734;28;19958;-76
2021/12/17 11:35:31;;;;;;;;;;;9.90;99.90;;;9.84;100.00;102668.53;4969603;28;19933;-76
2021/12/17 11:38:01;;;;;;;;;;;9.50;99.90;;;9.89;100.00;102664.22;4975942;28;19934;-76
2021/12/17 11:40:52;;;;;;;;;;;9.60;99.90;;;10.02;100.00;102664.41;4970156;28;20016;-76
2021/12/17 11:43:49;;;;;;;;;;;9.60;99.90;;;10.02;100.00;102665.31;4970184;28;19930;-77
2021/12/17 11:46:24;;;;;;;;;;;9.70;99.90;;;10.05;100.00;102667.09;4970059;28;19937;-78
2021/12/17 11:49:04;;;;;;;;;;;9.70;99.90;;;10.10;100.00;102673.31;4968787;28;19973;-75
2021/12/17 11:51:35;;;;;;;;;;;9.80;99.90;;;10.20;100.00;102669.94;4967188;28;20052;-75
2021/12/17 11:54:14;;;;;;;;;;;9.90;99.90;;;10.32;100.00;102669.25;4967613;28;19940;-75
2021/12/17 11:56:48;;;;;;;;;;;9.90;99.90;;;10.38;100.00;102654.41;4963029;28;19950;-75
2021/12/17 11:59:24;;;;;;;;;;;10.00;99.90;;;10.45;100.00;102661.53;4964141;28;19930;-74
2021/12/17 12:02:00;;;;;;;;;;;10.00;99.90;;;10.52;100.00;102663.41;4984675;28;20411;-75
2021/12/17 12:04:46;;;;;;;;;;;10.10;99.90;;;10.54;100.00;102659.03;4983405;28;20528;-75
2021/12/17 12:07:16;;;;;;;;;;;10.20;99.90;;;10.69;100.00;102650.44;4966564;28;20005;-75
2021/12/17 12:09:59;;;;;;;;;;;10.20;99.90;;;10.86;100.00;102657.69;4966793;28;20024;-75
2021/12/17 12:12:40;;;;;;;;;;;10.30;99.90;;;11.05;100.00;102650.84;4981285;28;19937;-75
2021/12/17 12:15:16;;;;;;;;;;;10.50;99.90;;;11.21;100.00;102651.91;4950286;29;20032;-74
2021/12/17 12:18:08;;;;;;;;;;;10.70;99.80;;;11.32;100.00;102655.53;4956188;28;20017;-75
2021/12/17 12:20:56;;;;;;;;;;;10.80;99.70;;;11.46;100.00;102647.72;4968999;28;19969;-75
2021/12/17 12:23:29;;;;;;;;;;;11.00;99.70;;;11.49;100.00;102646.88;4966950;28;19930;-75
2021/12/17 12:26:07;;;;;;;;;;;11.10;99.40;;;11.48;100.00;102655.66;4955532;28;19935;-74
2021/12/17 12:28:56;;;;;;;;;;;11.20;99.00;;;11.67;100.00;102643.50;4953927;28;19934;-74
2021/12/17 12:31:27;;;;;;;;;;;11.20;99.50;;;11.62;100.00;102643.44;4952235;28;20009;-74
2021/12/17 12:34:00;;;;;;;;;;;11.30;98.80;;;11.68;100.00;102639.97;4969488;28;20024;-74
2021/12/17 12:37:00;;;;;;;;;;;13.00;99.10;;;11.83;100.00;102638.34;4969338;28;19930;-75
2021/12/17 12:39:39;;;;;;;;;;;11.40;98.60;;;11.95;100.00;102634.94;4969500;28;19926;-74
2021/12/17 12:42:22;;;;;;;;;;;11.60;98.50;;;11.89;100.00;102636.63;4970038;28;19937;-76
2021/12/17 12:44:49;;;;;;;;;;;11.60;98.30;;;11.95;100.00;102648.97;4969977;28;19945;-73
2021/12/17 12:47:19;;;;;;;;;;;11.70;97.90;;;11.81;100.00;102648.91;4969403;28;20395;-74
2021/12/17 12:50:03;;;;;;;;;;;11.70;97.70;;;11.83;100.00;102660.34;4969188;28;20379;-74
2021/12/17 12:52:30;;;;;;;;;;;11.60;97.90;;;11.82;100.00;102655.03;4970275;28;19936;-75
2021/12/17 12:55:01;;;;;;;;;;;11.50;98.30;;;11.72;100.00;102662.00;4978628;28;19977;-75
2021/12/17 12:57:42;;;;;;;;;;;11.50;98.00;;;11.68;100.00;102650.53;4968513;28;19930;-74
2021/12/17 13:00:12;;;;;;;;;;;11.50;98.30;;;11.61;100.00;102643.47;4944439;28;19936;-76
2021/12/17 13:02:40;;;;;;;;;;;11.40;98.20;;;11.61;100.00;102640.81;4968369;28;20395;-76
2021/12/17 13:05:08;;;;;;;;;;;11.30;98.60;;;11.46;100.00;102633.66;4969922;28;19985;-78
2021/12/17 13:07:53;;;;;;;;;;;11.20;98.20;;;11.35;100.00;102634.47;4985216;28;20634;-78
2021/12/17 13:10:24;;;;;;;;;;;11.20;98.30;;;11.26;100.00;102637.00;4952535;28;19934;-76
2021/12/17 13:13:08;;;;;;;;;;;11.10;98.20;;;11.31;100.00;102647.59;4958445;28;19937;-78
2021/12/17 13:15:43;;;;;;;;;;;11.10;98.30;;;11.35;100.00;102644.09;4968572;28;20495;-75
2021/12/17 13:23:48;;;;;;;;;;;11.10;98.60;;;11.55;100.00;102644.28;4960469;28;19981;-76
2021/12/17 13:26:16;;;;;;;;;;;11.10;98.80;;;11.62;100.00;102635.53;4963151;28;19927;-75
2021/12/17 13:28:49;;;;;;;;;;;11.20;98.60;;;11.64;100.00;102632.94;4948227;29;19933;-75
2021/12/17 13:31:39;;;;;;;;;;;11.20;98.50;;;11.63;100.00;102645.25;4949267;28;19934;-75
2021/12/17 13:34:12;;;;;;;;;;;11.20;98.30;;;11.82;100.00;102637.47;4951405;29;19946;-75
2021/12/17 13:36:51;;;;;;;;;;;11.70;98.00;;;11.89;100.00;102633.13;4958245;28;19996;-76
2021/12/17 13:39:22;;;;;;;;;;;11.50;97.90;;;11.70;100.00;102618.91;4973494;28;19926;-77
2021/12/17 13:41:50;;;;;;;;;;;11.50;97.90;;;11.80;100.00;102627.78;4971147;28;19930;-77
2021/12/17 13:44:24;;;;;;;;;;;11.40;98.00;;;11.72;100.00;102625.06;4955960;29;20514;-75
2021/12/17 13:46:52;;;;;;;;;;;11.50;98.00;;;11.83;100.00;102623.41;4966885;29;19931;-76
2021/12/17 13:49:20;;;;;;;;;;;11.50;98.20;;;11.72;100.00;102614.53;4958194;29;19934;-76
2021/12/17 13:51:47;;;;;;;;;;;11.40;97.80;;;11.67;100.00;102616.25;4971983;28;20264;-78
2021/12/17 13:54:14;;;;;;;;;;;11.40;98.10;;;11.62;100.00;102611.81;4956267;29;19933;-77
2021/12/17 13:56:41;;;;;;;;;;;11.40;98.10;;;11.72;100.00;102610.16;4954767;29;19941;-76
2021/12/17 13:59:08;;;;;;;;;;;11.30;98.20;;;11.64;100.00;102606.56;4959027;29;20410;-76
2021/12/17 14:01:36;;;;;;;;;;;11.30;98.30;;;11.54;100.00;102610.88;4970951;28;20041;-76
2021/12/17 14:04:12;;;;;;;;;;;11.30;98.50;;;11.47;100.00;102616.97;4954331;29;19934;-77
2021/12/17 14:06:50;;;;;;;;;;;11.10;98.40;;;11.42;100.00;102610.78;4954686;28;19930;-76
2021/12/17 14:09:21;;;;;;;;;;;11.10;98.50;;;11.35;100.00;102617.75;4968680;28;20355;-78
2021/12/17 14:11:49;;;;;;;;;;;11.00;98.50;;;11.23;100.00;102625.53;4972350;28;19938;-76
2021/12/17 14:14:36;;;;;;;;;;;11.30;98.80;;;11.24;100.00;102632.56;4971761;28;19937;-77
2021/12/17 14:17:05;;;;;;;;;;;10.80;98.90;;;11.25;100.00;102626.47;4975476;28;20355;-78
2021/12/17 14:19:40;;;;;;;;;;;10.90;99.10;;;11.20;100.00;102642.22;4970254;28;19936;-76
2021/12/17 14:22:28;;;;;;;;;;;10.80;98.80;;;11.08;100.00;102661.41;4973312;28;19930;-77
2021/12/17 14:24:57;;;;;;;;;;;10.70;98.90;;;10.95;100.00;102657.75;4974392;28;19926;-76
2021/12/17 14:27:44;;;;;;;;;;;10.70;98.70;;;10.92;100.00;102655.97;4960216;28;19926;-79
2021/12/17 14:30:12;;;;;;;;;;;10.70;98.80;;;10.90;100.00;102656.84;4991533;28;20398;-74
2021/12/17 14:32:45;;;;;;;;;;;10.50;98.80;;;10.83;100.00;102661.16;4974761;28;19933;-78